Terminal Aerodrome Forecast
Issued by NWS

Home | Current Version | Previous Version | Text Only | Print | Product List | Glossary On
Versions: 1 2 3 4 5 6 7 8 9 10 11 12 13
000
FTUS43 KSGF 301700
TAFBBG
TAF
KBBG 301720Z 3018/3118 VRB04KT 5SM -SHRA BR OVC040
      TEMPO 3018/3022 2SM RA BR BKN025 OVC040
     FM310300 00000KT 4SM -RA BR BKN025 OVC040 PROB30 3105/3111 2SM
      RA BR SCT004 OVC015=

USA.gov is the U.S. government's official web portal to all federal, state and local government web resources and services.